Time;durP1;ratioP1;P1;durP2;ratioP2;P2;SDS_P1;SDS_P2;PMS_P1;PMS_P2;Temp;Humidity;BMP_temperature;BMP_pressure;BME280_temperature;BME280_humidity;BME280_pressure;Samples;Min_cycle;Max_cycle;Signal;HPM_P1;HPM_P2
2022/05/12 00:00:26;;;;;;;3.42;1.73;;;;;;;13.31;84.55;100719.03;2078713;28;44750;-65
2022/05/12 00:01:28;;;;;;;6.15;2.20;;;;;;;13.30;84.48;100728.88;2078692;28;44058;-66
2022/05/12 00:02:29;;;;;;;3.97;1.80;;;;;;;13.28;84.10;100720.00;2078464;28;46188;-65
2022/05/12 00:03:31;;;;;;;5.07;1.95;;;;;;;13.27;83.99;100737.06;2078706;28;44356;-66
2022/05/12 00:04:34;;;;;;;6.68;1.70;;;;;;;13.27;84.50;100739.75;2078249;28;46857;-66
2022/05/12 00:05:36;;;;;;;4.47;2.10;;;;;;;13.26;84.59;100746.06;2079275;28;38731;-68
2022/05/12 00:06:38;;;;;;;5.70;1.73;;;;;;;13.24;84.37;100737.16;2078644;28;43350;-66
2022/05/12 00:07:41;;;;;;;6.32;2.00;;;;;;;13.26;83.36;100750.56;2079281;28;45783;-65
2022/05/12 00:08:42;;;;;;;5.03;1.50;;;;;;;13.26;82.25;100743.38;2078828;28;43281;-65
2022/05/12 00:09:44;;;;;;;6.57;1.80;;;;;;;13.25;82.86;100755.06;2078532;28;46192;-65
2022/05/12 00:10:46;;;;;;;7.88;1.70;;;;;;;13.24;82.70;100752.44;2079751;28;20046;-65
2022/05/12 00:11:48;;;;;;;4.55;1.45;;;;;;;13.22;82.39;100759.69;2079488;28;43346;-66
2022/05/12 00:12:53;;;;;;;5.70;1.63;;;;;;;13.21;82.20;100756.13;2078399;28;46348;-66
2022/05/12 00:13:55;;;;;;;5.20;1.25;;;;;;;13.21;83.05;100760.59;2078941;28;43277;-65
2022/05/12 00:14:56;;;;;;;7.18;1.48;;;;;;;13.18;82.93;100766.97;2078866;28;45638;-67
2022/05/12 00:15:58;;;;;;;6.55;1.63;;;;;;;13.16;82.71;100775.09;2078611;28;45899;-65
2022/05/12 00:17:01;;;;;;;5.45;1.30;;;;;;;13.15;82.70;100777.84;2079590;28;20882;-64
2022/05/12 00:18:06;;;;;;;5.63;1.20;;;;;;;13.13;81.56;100774.31;2070105;28;45853;-65
2022/05/12 00:19:08;;;;;;;3.55;0.73;;;;;;;13.11;80.55;100773.50;2071132;28;22616;-65
2022/05/12 00:20:13;;;;;;;5.20;1.27;;;;;;;13.09;79.26;100773.56;2078737;28;39875;-66
2022/05/12 00:21:15;;;;;;;4.90;0.98;;;;;;;13.07;78.85;100770.06;2078800;28;45391;-65
2022/05/12 00:22:17;;;;;;;5.85;1.30;;;;;;;13.03;78.39;100787.22;2078919;28;45210;-65
2022/05/12 00:23:23;;;;;;;6.97;0.90;;;;;;;13.02;78.50;100781.91;2078429;28;46408;-65
2022/05/12 00:24:24;;;;;;;5.60;1.00;;;;;;;12.97;78.60;100796.41;2078044;28;43052;-65
2022/05/12 00:25:26;;;;;;;6.55;1.23;;;;;;;12.95;79.36;100798.22;2096833;22;38338;-69
2022/05/12 00:26:32;;;;;;;5.35;0.90;;;;;;;12.92;79.04;100787.63;2071936;28;44951;-68
2022/05/12 00:27:36;;;;;;;5.88;1.40;;;;;;;12.92;78.83;100794.78;2071489;28;20823;-68
2022/05/12 00:28:38;;;;;;;4.20;0.95;;;;;;;12.90;78.51;100792.16;2070776;28;46414;-68
2022/05/12 00:29:39;;;;;;;6.88;1.30;;;;;;;12.89;78.31;100793.09;2070474;28;44251;-69
2022/05/12 00:30:43;;;;;;;4.70;1.17;;;;;;;12.88;78.35;100798.50;2070780;28;45603;-69
2022/05/12 00:31:47;;;;;;;6.45;1.00;;;;;;;12.87;78.44;100794.94;2070627;28;44672;-68
2022/05/12 00:32:48;;;;;;;6.53;0.95;;;;;;;12.87;78.67;100796.78;2062242;28;45490;-69
2022/05/12 00:33:51;;;;;;;6.95;1.25;;;;;;;12.86;78.47;100809.31;2063292;28;20042;-69
2022/05/12 00:34:53;;;;;;;5.10;1.08;;;;;;;12.85;78.26;100812.03;2063524;28;20039;-69
2022/05/12 00:35:57;;;;;;;7.63;0.90;;;;;;;12.82;79.07;100806.78;2062266;28;43170;-69
2022/05/12 00:36:59;;;;;;;6.13;1.20;;;;;;;12.81;78.41;100816.63;2062488;28;44032;-69
2022/05/12 00:38:04;;;;;;;8.23;1.55;;;;;;;12.80;78.35;100820.28;2063537;28;20038;-69
2022/05/12 00:39:06;;;;;;;7.07;0.82;;;;;;;12.78;78.86;100814.09;2063463;28;20105;-69
2022/05/12 00:40:09;;;;;;;9.50;1.38;;;;;;;12.78;79.16;100824.84;2061565;28;45638;-69
2022/05/12 00:41:10;;;;;;;6.00;1.17;;;;;;;12.76;79.06;100832.94;2061969;28;36087;-69
2022/05/12 00:42:12;;;;;;;5.40;1.20;;;;;;;12.76;78.81;100837.44;2061799;28;46324;-70
2022/05/12 00:43:48;;;;;;;7.30;0.90;;;;;;;12.75;79.57;100835.66;2053915;28;43485;-69
2022/05/12 00:44:49;;;;;;;7.45;1.20;;;;;;;12.76;78.32;100835.63;2062732;28;43813;-69
2022/05/12 00:45:54;;;;;;;8.45;1.40;;;;;;;12.74;78.92;100850.91;2063562;28;20043;-69
2022/05/12 00:46:55;;;;;;;5.82;1.40;;;;;;;12.71;79.13;100848.31;2062516;28;44149;-69
2022/05/12 00:47:58;;;;;;;6.80;1.08;;;;;;;12.70;79.39;100862.69;2062360;28;46755;-69
2022/05/12 00:49:06;;;;;;;8.50;1.83;;;;;;;12.66;78.86;100862.84;2062411;28;43249;-69
2022/05/12 00:50:08;;;;;;;10.50;1.52;;;;;;;12.62;79.81;100863.88;2070122;28;37704;-69
2022/05/12 00:51:16;;;;;;;6.68;1.27;;;;;;;12.59;79.34;100863.03;2061679;28;43256;-69
2022/05/12 00:52:27;;;;;;;5.80;1.10;;;;;;;12.54;79.71;100866.78;2061929;28;43359;-69
2022/05/12 00:53:34;;;;;;;6.07;0.88;;;;;;;12.49;79.24;100875.03;2061469;28;45463;-69
2022/05/12 00:54:51;;;;;;;5.75;0.88;;;;;;;12.36;79.64;100873.63;2062452;28;43598;-69
2022/05/12 00:55:53;;;;;;;2.78;0.73;;;;;;;12.30;79.39;100880.06;2072357;28;39695;-69
2022/05/12 00:56:57;;;;;;;6.20;0.80;;;;;;;12.26;79.77;100890.94;2071423;28;44966;-69
2022/05/12 00:58:04;;;;;;;8.50;1.42;;;;;;;12.16;80.01;100891.22;2064371;28;44142;-69
2022/05/12 00:59:13;;;;;;;6.75;0.77;;;;;;;12.08;80.07;100901.34;2072408;28;20046;-70
2022/05/12 01:00:17;;;;;;;5.28;0.90;;;;;;;12.00;79.99;100903.34;2069765;28;44315;-69
2022/05/12 01:01:19;;;;;;;5.15;0.60;;;;;;;11.91;80.06;100906.31;2063826;28;45301;-69
2022/05/12 01:02:20;;;;;;;6.55;0.80;;;;;;;11.85;80.10;100904.66;2063359;28;45360;-69
2022/05/12 01:03:26;;;;;;;4.63;0.50;;;;;;;11.81;80.88;100919.97;2064452;28;43101;-69
2022/05/12 01:04:31;;;;;;;7.45;1.25;;;;;;;11.71;80.76;100921.13;2071123;28;44293;-69
2022/05/12 01:05:33;;;;;;;4.75;0.32;;;;;;;11.65;80.97;100919.50;2071787;28;20034;-69
2022/05/12 01:06:35;;;;;;;4.15;0.60;;;;;;;11.60;81.27;100931.28;2056508;28;20039;-69
2022/05/12 01:07:37;;;;;;;4.00;0.63;;;;;;;11.55;81.30;100935.91;2063334;28;44223;-69
2022/05/12 01:08:40;;;;;;;4.68;0.47;;;;;;;11.51;81.13;100931.53;2063635;28;43988;-69
2022/05/12 01:09:42;;;;;;;3.75;0.55;;;;;;;11.45;81.18;100944.19;2064126;28;45260;-69
2022/05/12 01:11:05;;;;;;;5.05;0.80;;;;;;;11.41;81.53;100946.97;2070751;28;45713;-69
2022/05/12 01:12:08;;;;;;;5.43;0.30;;;;;;;11.37;81.51;100954.22;2068288;28;44132;-69
2022/05/12 01:13:09;;;;;;;5.10;0.60;;;;;;;11.33;81.73;100970.44;2063519;28;43928;-69
2022/05/12 01:14:11;;;;;;;6.90;0.63;;;;;;;11.28;81.46;100957.13;2064089;28;42203;-69
2022/05/12 01:15:14;;;;;;;5.47;0.50;;;;;;;11.24;81.86;100966.19;2063736;28;45484;-69
2022/05/12 01:16:42;;;;;;;5.05;0.40;;;;;;;11.17;82.27;100972.63;2063989;28;46036;-69
2022/05/12 01:17:46;;;;;;;6.88;0.47;;;;;;;11.15;82.81;100979.81;2063804;28;43771;-69
2022/05/12 01:18:47;;;;;;;4.93;0.60;;;;;;;11.11;82.40;100989.75;2063775;28;46039;-69
2022/05/12 01:19:51;;;;;;;4.60;0.50;;;;;;;11.08;82.77;100992.47;2063505;28;42937;-69
2022/05/12 01:20:53;;;;;;;4.32;0.38;;;;;;;11.04;82.72;100980.97;2064552;28;36407;-68
2022/05/12 01:21:56;;;;;;;3.55;0.50;;;;;;;11.02;83.06;100995.31;2063316;28;45429;-69
2022/05/12 01:23:21;;;;;;;5.55;0.40;;;;;;;10.97;83.20;101011.50;2071148;28;43500;-67
2022/05/12 01:24:31;;;;;;;4.25;0.30;;;;;;;10.91;83.50;100998.25;2067748;28;45692;-69
2022/05/12 01:25:32;;;;;;;3.63;0.20;;;;;;;10.89;83.77;101002.75;2062927;28;43493;-69
2022/05/12 01:26:35;;;;;;;2.63;0.15;;;;;;;10.89;83.86;101005.41;2071377;28;44126;-69
2022/05/12 01:27:37;;;;;;;3.13;0.30;;;;;;;10.85;84.07;101018.00;2070979;28;46422;-69
2022/05/12 01:28:39;;;;;;;4.22;0.20;;;;;;;10.79;83.93;101017.28;2063913;28;43484;-69
2022/05/12 01:29:43;;;;;;;5.97;0.30;;;;;;;10.77;84.46;101019.13;2063209;28;20050;-68
2022/05/12 01:30:45;;;;;;;4.93;0.28;;;;;;;10.75;83.88;101020.91;2056248;28;20998;-69
2022/05/12 01:31:47;;;;;;;1.65;0.10;;;;;;;10.74;84.69;101022.72;2063221;28;34574;-69
2022/05/12 01:32:50;;;;;;;4.53;0.20;;;;;;;10.70;84.11;101018.38;2063966;28;45056;-69
2022/05/12 01:33:52;;;;;;;3.35;0.13;;;;;;;10.69;84.12;101033.56;2072065;28;20051;-69
2022/05/12 01:34:55;;;;;;;4.00;0.30;;;;;;;10.71;83.96;101030.81;2070893;28;45701;-69
2022/05/12 01:35:58;;;;;;;1.83;0.20;;;;;;;10.72;83.85;101031.72;2063955;28;20950;-69
2022/05/12 01:37:00;;;;;;;2.50;0.20;;;;;;;10.69;83.98;101038.91;2063775;28;43111;-69
2022/05/12 01:38:01;;;;;;;2.00;0.20;;;;;;;10.68;84.00;101039.81;2063354;28;46811;-69
2022/05/12 01:39:07;;;;;;;3.50;0.20;;;;;;;10.70;84.07;101042.47;2071656;28;41161;-69
2022/05/12 01:40:14;;;;;;;5.32;0.20;;;;;;;10.70;84.06;101045.16;2070164;28;44087;-69
2022/05/12 01:41:16;;;;;;;4.47;0.30;;;;;;;10.74;83.65;101051.31;2062242;28;44731;-69
2022/05/12 01:42:18;;;;;;;3.25;0.13;;;;;;;10.73;83.50;101049.53;2071045;28;44063;-69
2022/05/12 01:43:20;;;;;;;2.53;0.15;;;;;;;10.73;83.32;101052.22;2071353;28;32382;-69
2022/05/12 01:44:25;;;;;;;1.40;0.10;;;;;;;10.73;83.32;101049.53;2064155;28;44494;-70
2022/05/12 01:45:26;;;;;;;2.83;0.20;;;;;;;10.72;83.40;101059.38;2071084;28;45846;-69
2022/05/12 01:46:28;;;;;;;3.58;0.20;;;;;;;10.69;83.33;101065.69;2070484;28;44978;-68
2022/05/12 01:47:30;;;;;;;3.28;0.20;;;;;;;10.66;83.67;101064.88;2063894;28;44815;-68
2022/05/12 01:48:32;;;;;;;2.55;0.20;;;;;;;10.66;83.70;101070.22;2070819;28;45801;-68
2022/05/12 01:49:34;;;;;;;4.22;0.20;;;;;;;10.63;83.39;101065.81;2062926;28;45996;-68
2022/05/12 01:50:39;;;;;;;3.00;0.20;;;;;;;10.60;83.39;101073.91;2062819;28;44937;-69
2022/05/12 01:51:40;;;;;;;4.63;0.20;;;;;;;10.58;83.47;101077.53;2070947;28;33176;-68
2022/05/12 01:52:44;;;;;;;2.55;0.20;;;;;;;10.54;83.87;101075.84;2070536;28;44451;-69
2022/05/12 01:53:46;;;;;;;1.55;0.20;;;;;;;10.54;83.73;101082.06;2063338;28;44000;-69
2022/05/12 01:54:47;;;;;;;2.15;0.13;;;;;;;10.48;83.46;101083.06;2070842;28;45702;-69
2022/05/12 01:55:49;;;;;;;3.28;0.30;;;;;;;10.46;84.14;101081.31;2063378;28;45253;-69
2022/05/12 01:56:51;;;;;;;1.20;0.20;;;;;;;10.46;84.40;101090.25;2071701;28;21033;-69
2022/05/12 01:57:53;;;;;;;3.20;0.20;;;;;;;10.40;84.12;101082.34;2070962;28;43070;-69
2022/05/12 01:58:55;;;;;;;1.42;0.20;;;;;;;10.41;84.11;101091.25;2062375;28;45518;-69
2022/05/12 01:59:57;;;;;;;2.78;0.28;;;;;;;10.38;83.50;101092.19;2064537;28;20055;-69
2022/05/12 02:00:58;;;;;;;1.48;0.30;;;;;;;10.37;83.73;101100.25;2070869;28;43213;-69
2022/05/12 02:02:00;;;;;;;4.80;0.35;;;;;;;10.33;83.23;101096.75;2070755;28;45167;-69
2022/05/12 02:03:02;;;;;;;2.70;0.20;;;;;;;10.32;83.73;101098.56;2070576;28;44881;-69
2022/05/12 02:04:05;;;;;;;4.88;0.38;;;;;;;10.34;83.61;101097.63;2070542;28;32848;-69
2022/05/12 02:05:10;;;;;;;2.65;0.25;;;;;;;10.30;83.85;101096.78;2062419;28;45824;-69
2022/05/12 02:06:14;;;;;;;1.95;0.35;;;;;;;10.27;84.09;101107.56;2070300;28;45609;-69
2022/05/12 02:07:18;;;;;;;3.95;0.30;;;;;;;10.26;83.90;101103.97;2069593;28;45346;-69
2022/05/12 02:08:20;;;;;;;2.25;0.22;;;;;;;10.21;83.96;101103.22;2063349;28;44475;-69
2022/05/12 02:09:22;;;;;;;2.58;0.60;;;;;;;10.22;83.42;101109.44;2070682;28;44146;-69
2022/05/12 02:10:28;;;;;;;4.63;0.30;;;;;;;10.16;83.53;101113.09;2070851;28;44932;-68
2022/05/12 02:11:30;;;;;;;3.85;0.30;;;;;;;10.15;84.35;101111.34;2063375;28;44290;-69
2022/05/12 02:12:32;;;;;;;5.90;0.43;;;;;;;10.15;84.57;101115.81;2063572;28;42828;-69
2022/05/12 02:13:34;;;;;;;4.00;0.30;;;;;;;10.12;84.44;101116.72;2063864;28;32658;-69
2022/05/12 02:14:36;;;;;;;4.78;0.35;;;;;;;10.11;83.36;101115.84;2062754;28;45551;-69
2022/05/12 02:15:39;;;;;;;2.78;0.40;;;;;;;10.11;83.76;101128.38;2062730;28;44939;-69
2022/05/12 02:16:43;;;;;;;1.63;0.60;;;;;;;10.07;83.42;101127.53;2071225;28;42021;-69
2022/05/12 02:17:45;;;;;;;4.10;0.38;;;;;;;10.04;84.39;101135.59;2070084;28;44390;-69
2022/05/12 02:18:47;;;;;;;2.58;0.25;;;;;;;10.04;84.05;101132.94;2072261;28;20042;-69
2022/05/12 02:19:51;;;;;;;4.38;0.50;;;;;;;10.04;84.15;101132.06;2071388;28;20041;-69
2022/05/12 02:20:55;;;;;;;1.35;0.20;;;;;;;10.01;83.75;101135.66;2062846;28;44659;-69
2022/05/12 02:22:02;;;;;;;3.92;0.60;;;;;;;9.97;84.71;101135.75;2063246;28;44288;-69
2022/05/12 02:23:04;;;;;;;4.50;0.50;;;;;;;9.97;84.61;101141.97;2063559;28;40004;-69
2022/05/12 02:24:06;;;;;;;5.13;0.40;;;;;;;9.94;84.38;101145.59;2070217;28;45913;-69
2022/05/12 02:25:09;;;;;;;4.00;0.60;;;;;;;9.91;84.25;101145.63;2070281;28;45091;-69
2022/05/12 02:26:13;;;;;;;4.00;0.40;;;;;;;9.87;85.09;101143.94;2070157;28;44512;-69
2022/05/12 02:27:14;;;;;;;2.92;0.50;;;;;;;9.85;85.25;101142.16;2062768;28;44611;-69
2022/05/12 02:28:18;;;;;;;2.78;0.60;;;;;;;9.90;85.29;101151.00;2054786;28;45128;-69
2022/05/12 02:29:20;;;;;;;5.40;0.63;;;;;;;9.81;85.35;101148.50;2054165;28;46515;-69
2022/05/12 02:30:29;;;;;;;3.28;0.50;;;;;;;9.79;85.92;101151.19;2062325;28;44570;-69
2022/05/12 02:31:31;;;;;;;2.20;0.40;;;;;;;9.82;85.96;101155.63;2070122;28;45306;-69
2022/05/12 02:32:33;;;;;;;4.43;0.50;;;;;;;9.79;86.35;101164.56;2069702;28;35458;-69
2022/05/12 02:33:35;;;;;;;4.45;0.60;;;;;;;9.75;86.04;101162.84;2063380;28;45461;-69
2022/05/12 02:34:36;;;;;;;5.25;0.90;;;;;;;9.75;86.47;101169.06;2062986;28;44923;-69
2022/05/12 02:35:41;;;;;;;2.45;0.50;;;;;;;9.67;86.82;101167.41;2070320;28;35039;-69
2022/05/12 02:36:42;;;;;;;4.68;0.70;;;;;;;9.68;86.82;101169.19;2070156;28;45631;-69
2022/05/12 02:38:04;;;;;;;3.50;0.50;;;;;;;9.63;86.46;101168.38;2062518;28;45891;-69
2022/05/12 02:39:05;;;;;;;4.32;0.50;;;;;;;9.57;87.00;101171.16;2062438;28;44809;-69
2022/05/12 02:40:11;;;;;;;6.13;0.70;;;;;;;9.58;87.19;101179.13;2063252;28;20987;-69
2022/05/12 02:41:13;;;;;;;5.43;0.98;;;;;;;9.54;86.62;101178.28;2063298;28;44707;-68
2022/05/12 02:42:14;;;;;;;11.55;0.88;;;;;;;9.53;87.80;101178.34;2062318;28;45274;-68
2022/05/12 02:43:25;;;;;;;4.18;0.60;;;;;;;9.51;87.72;101181.03;2062937;28;43957;-69
2022/05/12 02:44:30;;;;;;;6.72;0.98;;;;;;;9.50;87.62;101181.06;2064101;28;20125;-68
2022/05/12 02:45:31;;;;;;;3.85;0.80;;;;;;;9.46;87.28;101188.22;2063133;28;45134;-69
2022/05/12 02:46:33;;;;;;;5.65;1.10;;;;;;;9.45;87.52;101182.91;2062776;28;43298;-69
2022/05/12 02:47:35;;;;;;;4.43;0.95;;;;;;;9.41;88.26;101191.88;2061965;28;43002;-67
2022/05/12 02:48:43;;;;;;;3.88;1.00;;;;;;;9.45;87.61;101193.59;2062990;28;44398;-69
2022/05/12 02:49:46;;;;;;;9.48;1.30;;;;;;;9.48;88.42;101196.22;2062974;28;45441;-69
2022/05/12 02:50:48;;;;;;;4.95;1.00;;;;;;;9.41;88.17;101195.44;2062701;28;44962;-69
2022/05/12 02:51:50;;;;;;;5.78;1.33;;;;;;;9.43;87.60;101198.97;2063487;28;42936;-69
2022/05/12 02:52:52;;;;;;;7.43;1.20;;;;;;;9.43;88.44;101206.09;2062888;28;44089;-69
2022/05/12 02:53:54;;;;;;;9.27;1.30;;;;;;;9.41;88.43;101203.44;2063173;28;44923;-69
2022/05/12 02:54:56;;;;;;;3.72;1.20;;;;;;;9.40;88.54;101209.69;2062183;28;39633;-69
2022/05/12 02:56:00;;;;;;;3.15;1.00;;;;;;;9.39;88.97;101205.25;2063819;28;20144;-69
2022/05/12 02:57:03;;;;;;;5.05;1.08;;;;;;;9.36;87.79;101208.84;2070422;28;45523;-68
2022/05/12 02:58:05;;;;;;;5.10;1.23;;;;;;;9.36;88.23;101205.28;2070205;28;45597;-69
2022/05/12 02:59:07;;;;;;;4.35;1.45;;;;;;;9.36;88.06;101205.28;2062878;28;45529;-69
2022/05/12 03:00:16;;;;;;;5.15;1.33;;;;;;;9.32;87.75;101208.91;2063918;28;20141;-69
2022/05/12 03:01:18;;;;;;;4.28;1.25;;;;;;;9.28;87.92;101212.53;2070139;28;44388;-69
2022/05/12 03:02:19;;;;;;;4.35;1.13;;;;;;;9.30;88.20;101206.25;2069752;28;45770;-69
2022/05/12 03:03:22;;;;;;;5.60;1.10;;;;;;;9.30;88.09;101216.06;2062791;28;45784;-68
2022/05/12 03:04:24;;;;;;;4.93;0.90;;;;;;;9.26;87.80;101212.56;2063726;28;45326;-68
2022/05/12 03:05:27;;;;;;;7.43;1.65;;;;;;;9.22;87.87;101212.59;2070057;28;44592;-69
2022/05/12 03:06:30;;;;;;;3.72;1.23;;;;;;;9.20;88.32;101214.41;2070303;28;45556;-68
2022/05/12 03:07:31;;;;;;;5.40;1.10;;;;;;;9.22;88.72;101212.59;2062642;28;41197;-69
2022/05/12 03:08:33;;;;;;;3.53;1.10;;;;;;;9.22;88.19;101223.28;2063395;28;44895;-69
2022/05/12 03:09:35;;;;;;;5.38;1.20;;;;;;;9.19;87.46;101226.91;2062767;28;46272;-69
2022/05/12 03:10:38;;;;;;;3.78;1.27;;;;;;;9.19;87.72;101224.22;2063378;28;43295;-69
2022/05/12 03:11:40;;;;;;;4.57;1.30;;;;;;;9.17;87.59;101226.03;2062446;28;45474;-69
2022/05/12 03:12:42;;;;;;;4.75;1.20;;;;;;;9.18;87.88;101228.66;2063335;28;44413;-68
2022/05/12 03:13:44;;;;;;;4.55;1.02;;;;;;;9.15;88.05;101233.16;2062952;28;43194;-69
2022/05/12 03:14:45;;;;;;;6.07;1.63;;;;;;;9.17;87.45;101239.41;2063334;28;43041;-68
2022/05/12 03:15:47;;;;;;;5.20;1.35;;;;;;;9.17;88.35;101244.75;2062809;28;45731;-69
2022/05/12 03:16:53;;;;;;;4.40;1.20;;;;;;;9.15;87.21;101244.75;2062737;28;44137;-69
2022/05/12 03:17:55;;;;;;;2.47;1.02;;;;;;;9.14;87.24;101248.31;2062620;28;45148;-69
2022/05/12 03:18:57;;;;;;;6.15;1.23;;;;;;;9.11;86.93;101259.03;2063107;28;44451;-69
2022/05/12 03:19:59;;;;;;;5.05;1.05;;;;;;;9.09;87.38;101255.50;2070394;28;37343;-69
2022/05/12 03:21:00;;;;;;;5.55;1.25;;;;;;;9.10;88.02;101256.41;2070272;28;45888;-69
2022/05/12 03:22:02;;;;;;;6.53;1.33;;;;;;;9.08;88.02;101268.88;2062400;28;44099;-69
2022/05/12 03:23:04;;;;;;;4.90;1.15;;;;;;;9.11;88.22;101267.03;2062773;28;37105;-69
2022/05/12 03:24:06;;;;;;;3.97;1.25;;;;;;;9.11;87.77;101274.19;2096144;22;41956;-70
2022/05/12 03:25:10;;;;;;;4.68;1.30;;;;;;;9.12;88.10;101268.81;2080871;28;44949;-70
2022/05/12 03:26:13;;;;;;;3.85;1.10;;;;;;;9.13;87.45;101267.94;2070487;28;44535;-70
2022/05/12 03:27:15;;;;;;;4.07;1.60;;;;;;;9.16;87.32;101273.22;2070860;28;43776;-70
2022/05/12 03:28:18;;;;;;;4.55;1.30;;;;;;;9.15;87.70;101266.13;2079060;28;41768;-70
2022/05/12 03:29:19;;;;;;;3.97;1.27;;;;;;;9.14;86.90;101266.16;2079335;28;43273;-71
2022/05/12 03:30:24;;;;;;;4.28;1.15;;;;;;;9.15;88.08;101271.47;2078981;28;44580;-70
2022/05/12 03:31:25;;;;;;;5.55;1.48;;;;;;;9.15;87.84;101279.50;2079494;28;45937;-70
2022/05/12 03:32:29;;;;;;;3.92;1.10;;;;;;;9.13;87.57;101278.63;2078888;28;44028;-70
2022/05/12 03:33:32;;;;;;;6.50;1.58;;;;;;;9.15;87.81;101274.13;2078724;28;44963;-70
2022/05/12 03:34:33;;;;;;;4.15;1.50;;;;;;;9.15;87.45;101275.91;2078115;28;43370;-68
2022/05/12 03:35:36;;;;;;;3.78;1.20;;;;;;;9.15;87.63;101270.56;2079334;28;44281;-70
2022/05/12 03:36:39;;;;;;;4.97;1.30;;;;;;;9.16;88.07;101275.00;2079008;28;45126;-69
2022/05/12 03:37:42;;;;;;;4.22;1.38;;;;;;;9.15;87.31;101274.13;2078950;28;42077;-70
2022/05/12 03:38:44;;;;;;;7.40;1.40;;;;;;;9.16;88.13;101270.56;2078202;28;45510;-69
2022/05/12 03:39:45;;;;;;;4.10;1.30;;;;;;;9.16;87.84;101273.22;2078030;28;43309;-70
2022/05/12 03:40:47;;;;;;;3.78;1.33;;;;;;;9.17;87.49;101269.66;2078478;28;45442;-70
2022/05/12 03:41:51;;;;;;;3.65;1.20;;;;;;;9.15;87.33;101278.56;2078989;28;46057;-70
2022/05/12 03:42:57;;;;;;;10.07;1.52;;;;;;;9.16;87.58;101278.56;2079005;28;44549;-70
2022/05/12 03:45:29;;;;;;;3.65;1.08;;;;;;;9.15;87.66;101274.13;2079150;28;20044;-70
2022/05/12 03:46:33;;;;;;;4.60;1.10;;;;;;;9.20;87.74;101273.19;2078834;28;45295;-70
2022/05/12 03:47:38;;;;;;;2.90;1.20;;;;;;;9.16;88.38;101273.22;2078620;28;46792;-70
2022/05/12 03:48:42;;;;;;;3.90;1.35;;;;;;;9.16;87.43;101275.88;2079238;28;44354;-70
2022/05/12 03:49:44;;;;;;;4.10;1.10;;;;;;;9.14;87.69;101274.16;2078916;28;45329;-70
2022/05/12 03:50:46;;;;;;;3.72;1.30;;;;;;;9.16;87.84;101275.00;2079216;28;44355;-70
2022/05/12 03:51:47;;;;;;;2.90;1.05;;;;;;;9.16;87.53;101288.38;2078751;28;45728;-70
2022/05/12 03:52:53;;;;;;;5.78;1.17;;;;;;;9.15;87.55;101281.25;2080225;28;20084;-70
2022/05/12 03:53:55;;;;;;;4.13;1.13;;;;;;;9.16;87.61;101283.91;2078610;28;42326;-70
2022/05/12 03:54:58;;;;;;;2.85;1.02;;;;;;;9.16;88.25;101293.72;2081913;28;45133;-70
2022/05/12 03:56:00;;;;;;;4.70;0.90;;;;;;;9.14;88.09;101291.06;2078760;28;46179;-70
2022/05/12 03:57:02;;;;;;;4.32;1.10;;;;;;;9.14;88.08;101296.41;2078122;28;45102;-70
2022/05/12 03:58:04;;;;;;;3.42;0.88;;;;;;;9.16;87.40;101302.59;2077941;28;45172;-70
2022/05/12 03:59:07;;;;;;;2.58;0.93;;;;;;;9.16;88.00;101299.06;2070676;28;43173;-70
2022/05/12 04:00:14;;;;;;;3.05;1.00;;;;;;;9.17;87.89;101307.06;2078781;28;43889;-69
2022/05/12 04:01:15;;;;;;;5.00;0.88;;;;;;;9.20;87.96;101305.25;2077933;28;46500;-70
2022/05/12 04:02:19;;;;;;;4.07;1.00;;;;;;;9.21;87.83;101312.38;2077817;28;43198;-70
2022/05/12 04:03:21;;;;;;;4.38;1.15;;;;;;;9.21;87.25;101315.06;2070676;28;45318;-70
2022/05/12 04:04:25;;;;;;;4.45;1.15;;;;;;;9.24;87.45;101310.56;2070513;28;45823;-70
2022/05/12 04:05:31;;;;;;;3.22;1.40;;;;;;;9.28;87.83;101320.28;2070413;28;45278;-70
2022/05/12 04:06:32;;;;;;;5.40;1.17;;;;;;;9.30;87.46;101321.16;2079778;28;31672;-70
2022/05/12 04:07:40;;;;;;;4.53;0.95;;;;;;;9.33;87.34;101322.91;2078949;28;43280;-70
2022/05/12 04:08:42;;;;;;;4.90;0.90;;;;;;;9.38;86.89;101320.19;2079215;28;44054;-70
2022/05/12 04:09:44;;;;;;;4.30;0.98;;;;;;;9.47;86.59;101320.06;2078986;28;39297;-69
2022/05/12 04:10:46;;;;;;;3.45;0.90;;;;;;;9.54;86.91;101322.63;2078940;28;42919;-69
2022/05/12 04:11:48;;;;;;;3.63;0.70;;;;;;;9.57;85.84;101326.22;2079021;28;41546;-70
2022/05/12 04:12:50;;;;;;;3.00;0.90;;;;;;;9.63;86.28;101323.44;2078886;28;43302;-70
2022/05/12 04:13:52;;;;;;;3.03;0.80;;;;;;;9.64;85.31;101327.91;2078533;28;44044;-69
2022/05/12 04:14:56;;;;;;;2.55;0.70;;;;;;;9.66;85.56;101328.75;2069191;28;45805;-68
2022/05/12 04:15:57;;;;;;;4.13;0.80;;;;;;;9.66;84.72;101331.44;2070161;28;44303;-69
2022/05/12 04:16:59;;;;;;;4.13;0.82;;;;;;;9.67;84.96;101333.19;2078931;28;46308;-68
2022/05/12 04:18:05;;;;;;;3.63;0.95;;;;;;;9.71;84.84;101334.94;2078366;28;43522;-69
2022/05/12 04:19:07;;;;;;;4.78;0.68;;;;;;;9.78;84.64;101336.63;2071106;28;29018;-70
2022/05/12 04:20:12;;;;;;;6.35;1.08;;;;;;;10.03;84.08;101333.59;2070555;28;46412;-69
2022/05/12 04:21:16;;;;;;;4.70;0.70;;;;;;;10.27;83.35;101340.38;2078823;28;45525;-69
2022/05/12 04:22:18;;;;;;;3.58;0.80;;;;;;;10.33;82.32;101334.97;2078195;28;45260;-69
2022/05/12 04:23:20;;;;;;;2.65;0.60;;;;;;;10.44;81.72;101338.34;2079862;28;44668;-70
2022/05/12 04:24:22;;;;;;;1.55;0.50;;;;;;;10.64;81.19;101335.34;2077795;28;45038;-69
2022/05/12 04:25:24;;;;;;;3.42;0.98;;;;;;;10.92;80.31;101332.19;2079197;28;20042;-68
2022/05/12 04:26:27;;;;;;;2.78;0.60;;;;;;;11.31;78.81;101332.34;2078859;28;42542;-69
2022/05/12 04:27:28;;;;;;;4.63;0.75;;;;;;;11.79;78.05;101334.03;2078851;28;45605;-70
2022/05/12 04:28:30;;;;;;;3.53;0.60;;;;;;;12.14;75.66;101330.59;2078719;28;45752;-70
2022/05/12 04:29:36;;;;;;;5.50;0.80;;;;;;;12.59;74.24;101330.41;2079535;28;45331;-69
2022/05/12 04:30:38;;;;;;;4.43;0.65;;;;;;;12.94;72.84;101322.38;2079944;28;46122;-70
2022/05/12 04:31:41;;;;;;;3.50;0.45;;;;;;;13.34;71.62;101337.44;2080329;28;43219;-69
2022/05/12 04:32:42;;;;;;;5.28;0.60;;;;;;;13.40;70.52;101336.38;2080147;28;27202;-70
2022/05/12 04:35:12;;;;;;;6.68;0.47;;;;;;;14.25;67.89;101342.81;2074011;28;44155;-70
2022/05/12 04:36:17;;;;;;;;;;;;;;;14.43;65.19;101336.84;2080787;28;44447;-68
2022/05/12 04:37:31;;;;;;;3.47;0.70;;;;;;;14.74;64.15;101330.44;2081305;28;19956;-69
2022/05/12 04:38:33;;;;;;;4.13;0.30;;;;;;;15.31;63.71;101336.56;2079055;28;44256;-69
2022/05/12 04:39:37;;;;;;;2.00;0.40;;;;;;;15.62;62.31;101336.28;2078137;28;46180;-69
2022/05/12 04:40:39;;;;;;;3.15;0.32;;;;;;;15.94;60.99;101342.31;2079298;28;43274;-69
2022/05/12 04:41:41;;;;;;;2.33;0.30;;;;;;;15.96;61.96;101344.94;2078931;28;44948;-69
2022/05/12 04:42:46;;;;;;;2.65;0.38;;;;;;;16.27;60.63;101341.03;2063895;28;37307;-69
2022/05/12 04:43:48;;;;;;;2.55;0.40;;;;;;;16.61;58.74;101335.13;2072547;28;44390;-69
2022/05/12 04:44:50;;;;;;;3.13;0.40;;;;;;;17.02;58.45;101339.75;2080206;28;44903;-69
2022/05/12 04:45:51;;;;;;;6.15;0.52;;;;;;;17.02;55.62;101343.31;2080329;28;32064;-69
2022/05/12 04:46:57;;;;;;;1.98;0.30;;;;;;;17.36;55.84;101341.84;2080000;28;44395;-70
2022/05/12 04:47:59;;;;;;;3.08;0.30;;;;;;;17.06;54.60;101342.22;2071043;28;44323;-70
2022/05/12 04:49:02;;;;;;;3.70;0.50;;;;;;;17.25;55.05;101344.16;2071786;28;44191;-69
2022/05/12 04:50:07;;;;;;;2.00;0.35;;;;;;;17.79;54.64;101344.41;2080173;28;44141;-69
2022/05/12 04:51:09;;;;;;;2.75;0.32;;;;;;;17.49;53.77;101348.44;2080579;28;38641;-69
2022/05/12 04:52:10;;;;;;;3.67;0.50;;;;;;;17.71;54.78;101350.16;2079781;28;45369;-69
2022/05/12 04:53:14;;;;;;;4.65;0.40;;;;;;;17.89;52.20;101341.25;2080069;28;44308;-69
2022/05/12 04:54:16;;;;;;;2.35;0.43;;;;;;;18.04;54.44;101345.03;2079771;28;44244;-69
2022/05/12 04:55:21;;;;;;;1.23;0.40;;;;;;;18.10;52.01;101346.56;2081229;28;20038;-69
2022/05/12 04:56:22;;;;;;;2.28;0.40;;;;;;;18.66;52.95;101351.06;2079871;28;44420;-69
2022/05/12 04:57:24;;;;;;;2.80;0.50;;;;;;;19.04;52.20;101344.63;2080345;28;45457;-69
2022/05/12 04:58:29;;;;;;;4.60;0.40;;;;;;;18.72;50.23;101354.38;2080206;28;43647;-69
2022/05/12 04:59:32;;;;;;;4.25;0.60;;;;;;;19.08;51.08;101343.53;2074936;28;45051;-69